createdAt,value
2022-10-14T00:00:11.616Z,108.30
2022-10-14T00:02:40.158Z,107.55
2022-10-14T00:05:10.223Z,106.17
2022-10-14T00:07:40.205Z,103.87
2022-10-14T00:10:09.811Z,108.40
2022-10-14T00:12:39.209Z,102.58
2022-10-14T00:15:10.095Z,108.37
2022-10-14T00:17:39.658Z,104.12
2022-10-14T00:20:09.919Z,103.02
2022-10-14T00:22:39.268Z,113.62
2022-10-14T00:25:09.252Z,107.40
2022-10-14T00:27:38.782Z,110.55
2022-10-14T00:30:10.823Z,118.82
2022-10-14T00:32:40.089Z,123.22
2022-10-14T00:35:11.245Z,127.07
2022-10-14T00:37:40.882Z,117.33
2022-10-14T00:40:11.380Z,122.53
2022-10-14T00:42:40.728Z,129.97
2022-10-14T00:45:15.637Z,127.27
2022-10-14T00:47:45.478Z,123.40
2022-10-14T00:50:16.981Z,123.92
2022-10-14T00:52:46.870Z,118.53
2022-10-14T00:55:18.953Z,124.67
2022-10-14T00:57:48.557Z,123.38
2022-10-14T01:00:19.306Z,121.85
2022-10-14T01:02:48.984Z,134.18
2022-10-14T01:05:19.467Z,125.65
2022-10-14T01:08:07.246Z,138.32
2022-10-14T01:10:48.785Z,130.35
2022-10-14T01:13:27.478Z,134.27
2022-10-14T01:16:07.778Z,134.50
2022-10-14T01:18:46.037Z,140.43
2022-10-14T01:21:24.029Z,139.18
2022-10-14T01:23:56.649Z,131.22
2022-10-14T01:29:43.589Z,143.15
2022-10-14T01:32:41.416Z,143.57
2022-10-14T01:35:48.909Z,154.60
2022-10-14T01:38:36.483Z,157.10
2022-10-14T01:41:22.007Z,159.78
2022-10-14T01:43:53.210Z,162.80
2022-10-14T01:46:24.184Z,159.67
2022-10-14T01:48:59.484Z,167.98
2022-10-14T01:51:34.655Z,174.35
2022-10-14T01:54:06.435Z,171.95
2022-10-14T01:56:40.523Z,176.22
2022-10-14T01:59:10.707Z,164.20
2022-10-14T02:01:40.184Z,164.40
2022-10-14T02:04:18.512Z,160.25
2022-10-14T02:07:02.943Z,158.20
2022-10-14T02:09:42.063Z,157.18
2022-10-14T02:12:23.950Z,166.22
2022-10-14T02:14:56.708Z,159.93
2022-10-14T02:20:02.383Z,161.32
2022-10-14T02:22:35.044Z,161.85
2022-10-14T02:25:16.187Z,166.25
2022-10-14T02:27:47.132Z,161.00
2022-10-14T02:30:18.570Z,168.87
2022-10-14T02:32:51.036Z,159.72
2022-10-14T02:35:21.537Z,153.70
2022-10-14T02:37:51.600Z,156.18
2022-10-14T02:40:30.015Z,154.23
2022-10-14T02:42:59.510Z,155.63
2022-10-14T02:45:28.863Z,148.55
2022-10-14T02:47:58.267Z,149.45
2022-10-14T02:50:27.674Z,146.35
2022-10-14T02:52:56.922Z,142.60
2022-10-14T02:55:26.535Z,144.93
2022-10-14T02:57:56.141Z,144.20
2022-10-14T03:00:27.254Z,141.92
2022-10-14T03:02:57.377Z,139.50
2022-10-14T03:05:28.028Z,142.10
2022-10-14T03:07:57.369Z,140.80
2022-10-14T03:10:28.387Z,135.35
2022-10-14T03:12:58.341Z,128.93
2022-10-14T03:15:29.309Z,133.07
2022-10-14T03:17:59.009Z,121.35
2022-10-14T03:20:30.164Z,121.05
2022-10-14T03:22:59.983Z,116.95
2022-10-14T03:25:29.486Z,123.40
2022-10-14T03:28:00.470Z,108.32
2022-10-14T03:30:31.569Z,108.27
2022-10-14T03:33:02.941Z,116.50
2022-10-14T03:35:48.985Z,106.43
2022-10-14T03:38:19.935Z,102.65
2022-10-14T03:40:49.763Z,102.95
2022-10-14T03:43:19.469Z,103.58
2022-10-14T03:45:54.136Z,100.25
2022-10-14T03:48:25.137Z,106.43
2022-10-14T03:50:56.260Z,118.28
2022-10-14T03:53:26.139Z,110.65
2022-10-14T03:55:56.222Z,110.42
2022-10-14T03:58:26.749Z,104.43
2022-10-14T04:00:58.337Z,108.17
2022-10-14T04:03:29.279Z,126.53
2022-10-14T04:05:58.796Z,116.53
2022-10-14T04:08:29.414Z,124.02
2022-10-14T04:11:00.361Z,117.05
2022-10-14T04:13:31.507Z,115.28
2022-10-14T04:16:09.188Z,109.87
2022-10-14T04:18:40.232Z,99.90
2022-10-14T04:21:13.123Z,101.38
2022-10-14T04:23:44.379Z,104.55
2022-10-14T04:26:15.310Z,99.58
2022-10-14T04:28:46.469Z,98.58
2022-10-14T04:31:17.573Z,105.58
2022-10-14T04:33:51.640Z,113.80
2022-10-14T04:36:22.641Z,120.10
2022-10-14T04:38:51.953Z,119.05
2022-10-14T04:41:21.349Z,115.12
2022-10-14T04:43:51.160Z,120.82
2022-10-14T04:46:27.864Z,129.35
2022-10-14T04:48:57.484Z,136.00
2022-10-14T04:51:28.592Z,126.05
2022-10-14T04:54:02.483Z,122.07
2022-10-14T04:56:33.451Z,127.40
2022-10-14T04:59:04.238Z,127.95
2022-10-14T05:01:52.037Z,121.33
2022-10-14T05:04:22.658Z,143.50
2022-10-14T05:06:52.774Z,120.77
2022-10-14T05:09:22.113Z,123.28
2022-10-14T05:11:52.319Z,124.18
2022-10-14T05:14:23.933Z,146.82
2022-10-14T05:16:55.152Z,120.45
2022-10-14T05:19:26.185Z,124.25
2022-10-14T05:21:55.910Z,114.95
2022-10-14T05:24:29.811Z,113.62
2022-10-14T05:26:59.221Z,132.00
2022-10-14T05:29:30.249Z,123.20
2022-10-14T05:32:00.454Z,125.30
2022-10-14T05:34:35.949Z,129.53
2022-10-14T05:37:06.421Z,127.92
2022-10-14T05:39:37.408Z,116.50
2022-10-14T05:42:07.123Z,124.90
2022-10-14T05:44:36.495Z,134.37
2022-10-14T05:47:10.776Z,149.40
2022-10-14T05:49:41.045Z,144.75
2022-10-14T05:52:10.705Z,147.57
2022-10-14T05:54:40.499Z,166.65
2022-10-14T05:57:10.895Z,179.95
2022-10-14T05:59:40.754Z,179.95
2022-10-14T06:02:11.041Z,161.43
2022-10-14T06:04:42.059Z,194.72
2022-10-14T06:07:11.470Z,177.82
2022-10-14T06:09:41.042Z,176.18
2022-10-14T06:12:10.903Z,170.80
2022-10-14T06:14:40.213Z,194.62
2022-10-14T06:17:09.461Z,188.12
2022-10-14T06:19:39.318Z,186.73
2022-10-14T06:22:08.818Z,189.87
2022-10-14T06:24:38.124Z,195.03
2022-10-14T06:27:07.508Z,181.40
2022-10-14T06:29:38.743Z,168.13
2022-10-14T06:32:09.363Z,176.10
2022-10-14T06:34:38.799Z,165.45
2022-10-14T06:37:08.061Z,173.20
2022-10-14T06:39:37.866Z,168.78
2022-10-14T06:42:12.143Z,177.82
2022-10-14T06:44:38.350Z,168.78
2022-10-14T06:47:08.119Z,163.05
2022-10-14T06:49:37.464Z,151.78
2022-10-14T06:52:06.885Z,161.52
2022-10-14T06:54:39.191Z,153.27
2022-10-14T06:57:07.375Z,161.43
2022-10-14T06:59:38.434Z,151.00
2022-10-14T07:02:08.258Z,150.97
2022-10-14T07:04:37.769Z,151.02
2022-10-14T07:07:08.657Z,151.22
2022-10-14T07:09:37.905Z,152.17
2022-10-14T07:12:07.388Z,143.90
2022-10-14T07:14:36.659Z,140.95
2022-10-14T07:17:06.154Z,136.62
2022-10-14T07:19:35.615Z,128.12
2022-10-14T07:22:05.455Z,121.25
2022-10-14T07:24:35.046Z,123.55
2022-10-14T07:27:04.812Z,133.07
2022-10-14T07:29:34.770Z,127.22
2022-10-14T07:32:05.215Z,112.75
2022-10-14T07:34:34.571Z,113.47
2022-10-14T07:37:04.234Z,111.17
2022-10-14T07:39:34.043Z,113.17
2022-10-14T07:42:03.575Z,111.25
2022-10-14T07:44:32.875Z,111.28
2022-10-14T07:47:03.362Z,108.37
2022-10-14T07:49:32.758Z,109.80
2022-10-14T07:52:02.076Z,118.13
2022-10-14T07:54:32.747Z,118.57
2022-10-14T07:57:02.287Z,122.22
2022-10-14T07:59:31.566Z,122.13
2022-10-14T08:02:01.080Z,115.90
2022-10-14T08:04:30.353Z,125.40
2022-10-14T08:06:59.813Z,101.38
2022-10-14T08:09:30.045Z,104.45
2022-10-14T08:11:59.361Z,95.53
2022-10-14T08:14:28.646Z,89.30
2022-10-14T08:16:58.000Z,92.33
2022-10-14T08:19:27.531Z,89.03
2022-10-14T08:21:56.846Z,85.22
2022-10-14T08:24:26.157Z,83.65
2022-10-14T08:26:58.020Z,79.22
2022-10-14T08:29:27.492Z,71.92
2022-10-14T08:31:56.820Z,75.57
2022-10-14T08:34:26.699Z,75.85
2022-10-14T08:36:56.105Z,75.65
2022-10-14T08:39:25.668Z,76.45
2022-10-14T08:42:10.386Z,70.95
2022-10-14T08:44:55.349Z,70.03
2022-10-14T08:47:27.354Z,70.83
2022-10-14T08:50:02.380Z,68.62
2022-10-14T08:52:44.079Z,68.17
2022-10-14T08:55:25.350Z,65.28
2022-10-14T08:57:57.989Z,61.77
2022-10-14T09:02:56.035Z,57.53
2022-10-14T09:05:27.021Z,56.45
2022-10-14T09:07:57.917Z,54.18
2022-10-14T09:10:36.300Z,58.35
2022-10-14T09:13:26.126Z,55.88
2022-10-14T09:16:01.013Z,51.25
2022-10-14T09:18:54.917Z,54.10
2022-10-14T09:21:53.516Z,55.12
2022-10-14T09:24:29.256Z,49.00
2022-10-14T09:27:06.897Z,46.35
2022-10-14T09:30:01.878Z,47.70
2022-10-14T09:32:34.773Z,43.05
2022-10-14T09:37:37.695Z,40.75
2022-10-14T09:40:16.159Z,42.20
2022-10-14T09:43:11.134Z,42.62
2022-10-14T09:46:00.374Z,36.40
2022-10-14T09:48:48.994Z,36.90
2022-10-14T09:51:30.060Z,35.25
2022-10-14T09:54:02.616Z,33.45
2022-10-14T09:59:05.716Z,35.00
2022-10-14T10:01:42.570Z,29.05
2022-10-14T10:04:34.611Z,30.08
2022-10-14T10:07:10.230Z,30.12
2022-10-14T10:09:39.754Z,27.60
2022-10-14T10:12:27.335Z,26.68
2022-10-14T10:15:06.107Z,26.25
2022-10-14T10:17:36.986Z,27.05
2022-10-14T10:20:31.782Z,25.97
2022-10-14T10:23:20.886Z,28.05
2022-10-14T10:25:50.828Z,29.82
2022-10-14T10:28:27.037Z,31.00
2022-10-14T10:31:02.600Z,30.50
2022-10-14T10:33:50.426Z,32.23
2022-10-14T10:36:34.192Z,30.27
2022-10-14T10:39:18.963Z,31.73
2022-10-14T10:42:11.068Z,34.55
2022-10-14T10:45:18.199Z,32.97
2022-10-14T10:48:01.185Z,34.48
2022-10-14T10:50:48.995Z,33.88
2022-10-14T10:53:29.480Z,35.85
2022-10-14T10:56:10.790Z,33.83
2022-10-14T10:58:49.031Z,39.50
2022-10-14T11:01:21.917Z,39.42
2022-10-14T11:03:54.985Z,38.40
2022-10-14T11:07:03.708Z,38.67
2022-10-14T11:10:00.467Z,36.65
2022-10-14T11:12:35.774Z,35.70
2022-10-14T11:15:10.845Z,37.10
2022-10-14T11:17:48.902Z,36.55
2022-10-14T11:20:40.943Z,41.18
2022-10-14T11:23:31.620Z,34.83
2022-10-14T11:26:22.084Z,34.75
2022-10-14T11:28:54.724Z,37.08
2022-10-14T11:34:29.762Z,32.08
2022-10-14T11:37:15.461Z,30.15
2022-10-14T11:40:05.802Z,30.10
2022-10-14T11:42:43.986Z,26.75
2022-10-14T11:45:31.496Z,28.35
2022-10-14T11:48:15.847Z,27.67
2022-10-14T11:50:47.300Z,23.45
2022-10-14T11:53:22.109Z,25.20
2022-10-14T11:55:54.654Z,21.42
2022-10-14T11:58:26.899Z,20.77
2022-10-14T12:00:58.541Z,21.77
2022-10-14T12:04:04.794Z,22.07
2022-10-14T12:06:45.645Z,27.93
2022-10-14T12:09:23.991Z,29.63
2022-10-14T12:12:02.870Z,30.48
2022-10-14T12:14:50.208Z,33.85
2022-10-14T12:17:49.847Z,36.03
2022-10-14T12:20:40.543Z,36.68
2022-10-14T12:23:13.127Z,36.42
2022-10-14T12:28:14.654Z,35.88
2022-10-14T12:30:44.247Z,33.85
2022-10-14T12:33:22.297Z,35.05
2022-10-14T12:36:00.288Z,35.38
2022-10-14T12:38:33.019Z,34.43
2022-10-14T12:43:38.769Z,39.65
2022-10-14T12:46:14.302Z,37.67
2022-10-14T12:48:50.776Z,35.85
2022-10-14T12:51:23.152Z,35.85
2022-10-14T12:53:58.597Z,40.03
2022-10-14T12:56:42.970Z,39.63
2022-10-14T12:59:25.709Z,39.70
2022-10-14T13:02:04.872Z,41.20
2022-10-14T13:04:35.278Z,40.73
2022-10-14T13:07:45.797Z,39.40
2022-10-14T13:10:03.165Z,44.75
2022-10-14T13:12:39.467Z,43.20
2022-10-14T13:15:12.069Z,43.38
2022-10-14T13:20:38.181Z,42.17
2022-10-14T13:23:22.756Z,45.63
2022-10-14T13:25:53.873Z,46.15
2022-10-14T13:28:35.443Z,43.13
2022-10-14T13:33:43.569Z,39.78
2022-10-14T13:38:46.101Z,37.45
2022-10-14T13:41:21.248Z,36.20
2022-10-14T13:43:53.049Z,33.40
2022-10-14T13:46:28.046Z,35.25
2022-10-14T13:49:00.164Z,36.15
2022-10-14T13:51:50.859Z,36.88
2022-10-14T13:54:25.130Z,31.68
2022-10-14T13:59:43.910Z,31.15
2022-10-14T14:02:04.939Z,28.98
2022-10-14T14:04:35.971Z,30.95
2022-10-14T14:07:35.193Z,28.00
2022-10-14T14:09:38.202Z,22.77
2022-10-14T14:12:07.990Z,24.23
2022-10-14T14:14:39.170Z,26.37
2022-10-14T14:17:17.703Z,25.97
2022-10-14T14:19:50.633Z,23.52
2022-10-14T14:22:26.672Z,18.17
2022-10-14T14:25:33.982Z,17.85
2022-10-14T14:27:53.279Z,18.17
2022-10-14T14:30:34.072Z,16.37
2022-10-14T14:33:07.897Z,17.65
2022-10-14T14:38:06.022Z,18.32
2022-10-14T14:40:35.560Z,18.80
2022-10-14T14:43:05.785Z,21.33
2022-10-14T14:45:38.262Z,20.12
2022-10-14T14:48:08.817Z,19.25
2022-10-14T14:50:42.601Z,18.82
2022-10-14T14:53:26.764Z,16.42
2022-10-14T14:56:00.308Z,17.02
2022-10-14T14:58:35.616Z,17.23
2022-10-14T15:01:07.797Z,17.05
2022-10-14T15:04:13.101Z,14.15
2022-10-14T15:06:31.401Z,14.73
2022-10-14T15:09:05.380Z,14.00
2022-10-14T15:11:34.766Z,14.53
2022-10-14T15:14:05.040Z,13.32
2022-10-14T15:16:42.909Z,10.93
2022-10-14T15:19:23.268Z,12.68
2022-10-14T15:22:29.550Z,11.78
2022-10-14T15:25:12.253Z,9.65
2022-10-14T15:27:50.342Z,10.50
2022-10-14T15:30:30.615Z,11.55
2022-10-14T15:33:05.449Z,16.00
2022-10-14T15:35:35.673Z,16.35
2022-10-14T15:38:12.540Z,15.60
2022-10-14T15:40:41.142Z,13.08
2022-10-14T15:43:17.678Z,14.00
2022-10-14T15:45:55.328Z,16.95
2022-10-14T15:48:24.696Z,16.12
2022-10-14T15:50:54.205Z,16.48
2022-10-14T15:53:25.513Z,15.45
2022-10-14T15:55:54.896Z,18.35
2022-10-14T15:58:24.374Z,16.50
2022-10-14T16:00:53.989Z,16.55
2022-10-14T16:03:23.369Z,15.30
2022-10-14T16:05:52.688Z,18.35
2022-10-14T16:08:22.316Z,19.23
2022-10-14T16:10:53.320Z,16.60
2022-10-14T16:13:22.565Z,17.70
2022-10-14T16:16:00.381Z,22.77
2022-10-14T16:18:29.823Z,20.05
2022-10-14T16:20:59.441Z,19.23
2022-10-14T16:23:33.382Z,23.62
2022-10-14T16:26:02.363Z,21.95
2022-10-14T16:28:31.833Z,25.82
2022-10-14T16:31:01.241Z,23.73
2022-10-14T16:33:30.702Z,24.35
2022-10-14T16:36:02.300Z,22.02
2022-10-14T16:38:31.692Z,25.30
2022-10-14T16:41:02.828Z,26.42
2022-10-14T16:43:32.141Z,24.77
2022-10-14T16:46:03.735Z,31.48
2022-10-14T16:48:34.690Z,29.37
2022-10-14T16:51:04.759Z,31.77
2022-10-14T16:53:45.180Z,32.90
2022-10-14T16:56:35.885Z,38.02
2022-10-14T16:59:07.626Z,39.67
2022-10-14T17:01:37.054Z,43.83
2022-10-14T17:04:08.888Z,42.25
2022-10-14T17:06:38.330Z,41.08
2022-10-14T17:09:08.146Z,69.17
2022-10-14T17:11:37.684Z,42.35
2022-10-14T17:14:06.992Z,47.88
2022-10-14T17:16:36.476Z,43.45
2022-10-14T17:19:05.751Z,48.80
2022-10-14T17:21:35.300Z,55.45
2022-10-14T17:24:05.017Z,57.50
2022-10-14T17:26:35.063Z,49.88
2022-10-14T17:29:04.496Z,52.50
2022-10-14T17:31:34.360Z,43.23
2022-10-14T17:34:04.072Z,44.98
2022-10-14T17:36:33.479Z,45.65
2022-10-14T17:39:03.078Z,46.63
2022-10-14T17:41:33.010Z,44.42
2022-10-14T17:44:02.347Z,48.60
2022-10-14T17:46:32.134Z,47.83
2022-10-14T17:49:03.998Z,43.28
2022-10-14T17:51:33.910Z,48.90
2022-10-14T17:54:08.471Z,47.70
2022-10-14T17:56:38.775Z,50.35
2022-10-14T17:59:11.213Z,47.98
2022-10-14T18:02:00.848Z,52.85
2022-10-14T18:04:11.744Z,54.38
2022-10-14T18:06:43.259Z,64.12
2022-10-14T18:09:13.079Z,64.47
2022-10-14T18:14:14.664Z,66.90
2022-10-14T18:16:44.024Z,70.22
2022-10-14T18:19:17.325Z,65.87
2022-10-14T18:21:46.669Z,139.70
2022-10-14T18:24:16.084Z,98.27
2022-10-14T18:26:45.469Z,89.90
2022-10-14T18:29:14.796Z,90.32
2022-10-14T18:31:44.188Z,85.22
2022-10-14T18:34:14.223Z,83.80
2022-10-14T18:36:43.569Z,83.42
2022-10-14T18:39:13.633Z,71.97
2022-10-14T18:41:43.964Z,73.95
2022-10-14T18:44:13.295Z,76.00
2022-10-14T18:46:42.690Z,72.32
2022-10-14T18:49:12.733Z,73.85
2022-10-14T18:51:43.433Z,112.25
2022-10-14T18:54:15.958Z,131.95
2022-10-14T18:56:45.874Z,88.85
2022-10-14T18:59:18.029Z,87.47
2022-10-14T19:01:50.371Z,57.67
2022-10-14T19:04:21.400Z,64.60
2022-10-14T19:06:50.898Z,79.87
2022-10-14T19:09:23.216Z,93.67
2022-10-14T19:11:53.374Z,100.18
2022-10-14T19:14:22.879Z,95.53
2022-10-14T19:16:52.428Z,116.22
2022-10-14T19:19:22.048Z,127.00
2022-10-14T19:21:53.602Z,126.87
2022-10-14T19:24:23.025Z,98.95
2022-10-14T19:26:54.359Z,99.28
2022-10-14T19:29:23.720Z,76.10
2022-10-14T19:31:54.680Z,92.30
2022-10-14T19:34:27.041Z,90.45
2022-10-14T19:36:55.372Z,89.87
2022-10-14T19:39:24.687Z,80.42
2022-10-14T19:41:54.437Z,77.30
2022-10-14T19:44:23.883Z,75.67
2022-10-14T19:46:53.221Z,82.75
2022-10-14T19:49:22.757Z,80.90
2022-10-14T19:51:52.241Z,96.05
2022-10-14T19:54:21.719Z,91.22
2022-10-14T19:56:51.187Z,95.32
2022-10-14T19:59:20.855Z,95.00
2022-10-14T20:01:50.740Z,79.85
2022-10-14T20:04:23.906Z,79.15
2022-10-14T20:06:53.310Z,87.50
2022-10-14T20:09:22.633Z,80.72
2022-10-14T20:11:53.154Z,79.58
2022-10-14T20:14:22.512Z,77.35
2022-10-14T20:16:53.713Z,77.32
2022-10-14T20:19:22.961Z,81.02
2022-10-14T20:21:52.275Z,82.47
2022-10-14T20:24:21.654Z,71.45
2022-10-14T20:26:51.033Z,71.10
2022-10-14T20:29:20.470Z,92.50
2022-10-14T20:31:49.861Z,87.78
2022-10-14T20:34:19.319Z,87.35
2022-10-14T20:36:48.655Z,89.50
2022-10-14T20:39:18.089Z,100.15
2022-10-14T20:41:47.325Z,101.50
2022-10-14T20:44:21.615Z,141.00
2022-10-14T20:46:48.238Z,100.12
2022-10-14T20:49:17.519Z,94.40
2022-10-14T20:51:46.757Z,87.20
2022-10-14T20:54:16.051Z,84.67
2022-10-14T20:56:45.433Z,79.75
2022-10-14T20:59:14.876Z,88.50
2022-10-14T21:01:44.255Z,134.03
2022-10-14T21:04:13.584Z,88.22
2022-10-14T21:06:42.889Z,108.45
2022-10-14T21:09:12.228Z,124.97
2022-10-14T21:11:43.247Z,89.42
2022-10-14T21:14:12.801Z,96.10
2022-10-14T21:16:42.238Z,77.95
2022-10-14T21:19:12.457Z,92.42
2022-10-14T21:21:45.521Z,79.22
2022-10-14T21:24:17.404Z,77.70
2022-10-14T21:26:49.104Z,89.83
2022-10-14T21:29:19.241Z,87.30
2022-10-14T21:31:49.508Z,84.28
2022-10-14T21:34:18.881Z,85.05
2022-10-14T21:36:48.284Z,91.53
2022-10-14T21:39:18.534Z,82.30
2022-10-14T21:41:48.133Z,76.22
2022-10-14T21:44:19.813Z,86.28
2022-10-14T21:46:49.990Z,92.33
2022-10-14T21:49:19.227Z,87.00
2022-10-14T21:51:48.600Z,86.37
2022-10-14T21:54:17.996Z,78.65
2022-10-14T21:56:47.308Z,83.78
2022-10-14T21:59:17.359Z,82.62
2022-10-14T22:01:46.707Z,84.30
2022-10-14T22:04:16.175Z,87.08
2022-10-14T22:06:45.674Z,82.60
2022-10-14T22:09:15.002Z,83.45
2022-10-14T22:11:44.317Z,85.75
2022-10-14T22:14:17.438Z,84.77
2022-10-14T22:16:47.957Z,87.65
2022-10-14T22:19:17.277Z,88.78
2022-10-14T22:21:50.252Z,90.12
2022-10-14T22:24:19.526Z,98.90
2022-10-14T22:26:51.842Z,103.47
2022-10-14T22:29:21.525Z,99.97
2022-10-14T22:31:50.764Z,95.35
2022-10-14T22:34:20.100Z,104.50
2022-10-14T22:36:49.396Z,102.72
2022-10-14T22:39:19.181Z,103.62
2022-10-14T22:41:48.984Z,108.25
2022-10-14T22:44:18.427Z,99.28
2022-10-14T22:46:47.676Z,103.22
2022-10-14T22:49:17.478Z,104.70
2022-10-14T22:51:46.837Z,104.78
2022-10-14T22:54:16.119Z,107.72
2022-10-14T22:56:45.564Z,111.35
2022-10-14T22:59:14.942Z,102.87
2022-10-14T23:01:44.739Z,110.70
2022-10-14T23:04:14.069Z,115.22
2022-10-14T23:06:45.213Z,111.68
2022-10-14T23:09:14.536Z,112.85
2022-10-14T23:11:44.041Z,114.97
2022-10-14T23:14:13.284Z,119.87
2022-10-14T23:16:42.615Z,120.62
2022-10-14T23:19:11.937Z,112.50
2022-10-14T23:21:41.540Z,117.37
2022-10-14T23:24:12.458Z,121.13
2022-10-14T23:26:41.824Z,124.62
2022-10-14T23:29:12.418Z,120.37
2022-10-14T23:31:42.314Z,124.18
2022-10-14T23:34:15.272Z,140.30
2022-10-14T23:36:44.701Z,129.95
2022-10-14T23:39:14.328Z,127.05
2022-10-14T23:41:43.682Z,130.03
2022-10-14T23:44:13.267Z,130.97
2022-10-14T23:46:43.055Z,129.97
2022-10-14T23:49:25.644Z,125.60
2022-10-14T23:51:43.796Z,127.62
2022-10-14T23:54:13.037Z,126.97
2022-10-14T23:56:42.399Z,125.72
2022-10-14T23:59:12.311Z,125.07
